Time;durP1;ratioP1;P1;durP2;ratioP2;P2;SDS_P1;SDS_P2;PMS_P1;PMS_P2;Temp;Humidity;BMP_temperature;BMP_pressure;BME280_temperature;BME280_humidity;BME280_pressure;Samples;Min_cycle;Max_cycle;Signal;HPM_P1;HPM_P2
2023/10/19 00:03:02;;;;;;;30.07;27.40;;;13.20;99.90;;;;;;10471494;28;20904;-78
2023/10/19 00:08:24;;;;;;;31.37;28.30;;;13.10;99.90;;;;;;10418742;28;20302;-78
2023/10/19 00:13:49;;;;;;;31.03;28.10;;;13.10;99.90;;;;;;10441462;28;20194;-78
2023/10/19 00:19:18;;;;;;;28.50;26.20;;;13.00;99.90;;;;;;10464274;28;20208;-78
2023/10/19 00:24:41;;;;;;;26.93;24.77;;;13.10;99.90;;;;;;10495387;28;20209;-77
2023/10/19 00:30:06;;;;;;;28.60;26.37;;;13.10;99.90;;;;;;10478853;28;20221;-77
2023/10/19 00:35:34;;;;;;;27.10;24.80;;;13.10;99.90;;;;;;10486305;28;20738;-77
2023/10/19 00:41:04;;;;;;;26.73;24.40;;;13.10;99.90;;;;;;10488544;28;20222;-77
2023/10/19 00:46:32;;;;;;;25.97;23.87;;;13.10;99.90;;;;;;10453526;28;20228;-78
2023/10/19 00:52:10;;;;;;;26.43;23.67;;;13.20;99.90;;;;;;10452736;28;20218;-77
2023/10/19 00:57:34;;;;;;;25.87;23.60;;;13.20;99.90;;;;;;10446674;28;20576;-78
2023/10/19 01:02:59;;;;;;;25.30;23.20;;;13.20;99.90;;;;;;10455881;28;20320;-78
2023/10/19 01:08:25;;;;;;;24.13;22.33;;;13.20;99.90;;;;;;10444513;28;20235;-78
2023/10/19 01:13:47;;;;;;;24.53;22.70;;;13.30;99.90;;;;;;10472070;28;20200;-78
2023/10/19 01:19:11;;;;;;;23.97;22.07;;;13.30;99.90;;;;;;10446582;28;20224;-78
2023/10/19 01:24:40;;;;;;;22.20;20.47;;;13.30;99.90;;;;;;10396376;28;20222;-78
2023/10/19 01:30:04;;;;;;;22.40;20.60;;;13.40;99.90;;;;;;10452912;28;20293;-78
2023/10/19 01:35:26;;;;;;;19.57;18.13;;;13.40;99.90;;;;;;10471147;28;20231;-78
2023/10/19 01:40:51;;;;;;;20.10;18.63;;;13.50;99.90;;;;;;10460970;28;20228;-78
2023/10/19 01:46:21;;;;;;;18.67;17.47;;;13.50;99.90;;;;;;10481186;28;20304;-78
2023/10/19 01:51:46;;;;;;;19.07;17.37;;;13.50;99.90;;;;;;10466987;28;20225;-78
2023/10/19 01:57:12;;;;;;;22.53;20.80;;;13.50;99.90;;;;;;10478074;28;20196;-78
2023/10/19 02:02:35;;;;;;;22.13;20.33;;;13.60;99.90;;;;;;10447289;28;20238;-76
2023/10/19 02:07:57;;;;;;;23.10;21.40;;;13.60;99.90;;;;;;10467431;28;20203;-78
2023/10/19 02:13:21;;;;;;;22.27;20.77;;;13.60;99.90;;;;;;10449111;28;20197;-78
2023/10/19 02:18:44;;;;;;;21.67;20.17;;;13.60;99.90;;;;;;10465349;28;20228;-78
2023/10/19 02:24:07;;;;;;;21.97;20.27;;;13.60;99.90;;;;;;10467958;28;20239;-78
2023/10/19 02:29:31;;;;;;;20.33;18.90;;;13.60;99.90;;;;;;10487178;28;20641;-78
2023/10/19 02:34:53;;;;;;;20.50;19.00;;;13.70;99.90;;;;;;10497963;28;20189;-78
2023/10/19 02:40:21;;;;;;;20.80;19.10;;;13.70;99.90;;;;;;10474464;28;20236;-78
2023/10/19 02:45:47;;;;;;;20.93;19.47;;;13.70;99.90;;;;;;10486127;28;20220;-78
2023/10/19 02:51:10;;;;;;;20.60;19.10;;;13.60;99.90;;;;;;10418268;28;20233;-78
2023/10/19 02:56:35;;;;;;;26.87;24.33;;;13.60;99.90;;;;;;10495075;28;20229;-78
2023/10/19 03:02:06;;;;;;;20.57;18.87;;;13.50;99.90;;;;;;10463474;28;20213;-78
2023/10/19 03:07:29;;;;;;;16.87;15.50;;;13.50;99.90;;;;;;10473773;28;20198;-78
2023/10/19 03:12:51;;;;;;;15.67;14.67;;;13.40;99.90;;;;;;10455815;28;20236;-78
2023/10/19 03:18:15;;;;;;;17.27;16.07;;;13.40;99.90;;;;;;10475386;28;20209;-78
2023/10/19 03:23:37;;;;;;;17.60;16.10;;;13.40;99.90;;;;;;10466817;28;20221;-78
2023/10/19 03:29:12;;;;;;;14.93;13.70;;;13.40;99.90;;;;;;10478935;28;20239;-78
2023/10/19 03:34:37;;;;;;;15.13;14.17;;;13.40;99.90;;;;;;10472346;28;20272;-78
2023/10/19 03:40:04;;;;;;;18.53;17.03;;;13.40;99.90;;;;;;10470911;28;20635;-78
2023/10/19 03:45:27;;;;;;;20.70;19.20;;;13.40;99.90;;;;;;10487874;28;20240;-78
2023/10/19 03:50:53;;;;;;;17.40;16.20;;;13.40;99.90;;;;;;10453551;28;20230;-77
2023/10/19 03:56:17;;;;;;;18.87;17.47;;;13.40;99.90;;;;;;10479208;28;20567;-78
2023/10/19 04:01:39;;;;;;;19.53;18.03;;;13.40;99.90;;;;;;10442801;28;20229;-78
2023/10/19 04:07:10;;;;;;;18.77;17.07;;;13.30;99.90;;;;;;10497202;28;20228;-78
2023/10/19 04:12:35;;;;;;;19.37;16.40;;;13.30;99.90;;;;;;10443434;28;20251;-78
2023/10/19 04:18:00;;;;;;;16.07;14.97;;;13.40;99.90;;;;;;10443976;28;20185;-78
2023/10/19 04:23:26;;;;;;;16.40;15.20;;;13.50;99.90;;;;;;10495625;28;20297;-78
2023/10/19 04:28:51;;;;;;;17.33;15.97;;;13.50;99.90;;;;;;10488439;28;20319;-78
2023/10/19 04:34:14;;;;;;;18.50;17.20;;;13.50;99.90;;;;;;10473312;28;20189;-79
2023/10/19 04:39:37;;;;;;;17.53;16.43;;;13.60;99.90;;;;;;10481103;28;20241;-79
2023/10/19 04:45:00;;;;;;;15.93;14.93;;;13.60;99.90;;;;;;10458777;28;20213;-79
2023/10/19 04:50:22;;;;;;;16.27;15.13;;;13.60;99.90;;;;;;10475169;28;20233;-79
2023/10/19 04:55:47;;;;;;;17.17;15.77;;;13.60;99.90;;;;;;10476873;28;20201;-78
2023/10/19 05:01:11;;;;;;;17.43;16.13;;;13.60;99.90;;;;;;10476851;28;20221;-78
2023/10/19 05:06:33;;;;;;;16.20;15.10;;;13.60;99.90;;;;;;10457177;28;20768;-78
2023/10/19 05:11:57;;;;;;;15.60;14.50;;;13.60;99.90;;;;;;10455323;28;20223;-77
2023/10/19 05:17:21;;;;;;;16.00;14.80;;;13.60;99.90;;;;;;10460183;28;20610;-78
2023/10/19 05:22:44;;;;;;;15.60;14.50;;;13.60;99.90;;;;;;10458171;28;20235;-78
2023/10/19 05:28:09;;;;;;;19.87;18.10;;;13.50;99.90;;;;;;10491077;28;20684;-78
2023/10/19 05:33:32;;;;;;;18.53;17.03;;;13.50;99.90;;;;;;10452388;28;20271;-79
2023/10/19 05:38:54;;;;;;;16.37;15.17;;;13.50;99.90;;;;;;10439228;28;20229;-79
2023/10/19 05:44:19;;;;;;;16.77;15.37;;;13.40;99.90;;;;;;10453476;28;20246;-78
2023/10/19 05:49:41;;;;;;;16.70;15.57;;;13.40;99.90;;;;;;10486336;28;20229;-78
2023/10/19 05:55:05;;;;;;;20.03;18.40;;;13.40;99.90;;;;;;10469895;28;20196;-78
2023/10/19 06:00:28;;;;;;;16.50;15.13;;;13.50;99.90;;;;;;10490524;28;20706;-79
2023/10/19 06:05:50;;;;;;;16.20;14.90;;;13.50;99.90;;;;;;10479742;28;20225;-79
2023/10/19 06:11:13;;;;;;;17.43;16.20;;;13.50;99.90;;;;;;10476963;28;20208;-79
2023/10/19 06:16:36;;;;;;;30.20;19.80;;;13.50;99.90;;;;;;10493251;28;20285;-79
2023/10/19 06:21:59;;;;;;;32.67;26.17;;;13.60;99.90;;;;;;10480082;28;20213;-79
2023/10/19 06:27:23;;;;;;;34.20;24.43;;;13.60;99.90;;;;;;10462206;28;20311;-79
2023/10/19 06:32:51;;;;;;;35.53;26.30;;;13.70;99.90;;;;;;10492980;28;20239;-79
2023/10/19 06:38:14;;;;;;;34.07;23.60;;;13.70;99.90;;;;;;10495998;28;20204;-79
2023/10/19 06:43:36;;;;;;;25.03;20.17;;;13.70;99.90;;;;;;10470704;28;20253;-78
2023/10/19 06:49:00;;;;;;;22.13;19.03;;;13.70;99.90;;;;;;10477491;28;20228;-79
2023/10/19 06:54:22;;;;;;;20.83;18.50;;;13.70;99.90;;;;;;10480336;28;20297;-79
2023/10/19 06:59:44;;;;;;;23.60;21.10;;;13.80;99.90;;;;;;10461066;28;20230;-79
2023/10/19 07:05:11;;;;;;;23.33;20.87;;;13.90;99.90;;;;;;10404095;28;20616;-79
2023/10/19 07:10:34;;;;;;;34.60;25.80;;;13.90;99.90;;;;;;10433185;28;20324;-79
2023/10/19 07:15:56;;;;;;;33.37;27.40;;;14.00;99.90;;;;;;10464324;28;20189;-79
2023/10/19 07:21:20;;;;;;;34.13;26.63;;;14.10;99.90;;;;;;10498655;28;20232;-79
2023/10/19 07:26:51;;;;;;;31.33;25.90;;;14.10;99.90;;;;;;10491147;28;20227;-79
2023/10/19 07:32:16;;;;;;;29.40;24.77;;;14.10;99.90;;;;;;10467605;28;20214;-79
2023/10/19 07:37:40;;;;;;;33.30;29.77;;;14.20;99.90;;;;;;10475726;28;20216;-79
2023/10/19 07:43:03;;;;;;;32.80;25.50;;;14.20;99.90;;;;;;10479135;28;20202;-80
2023/10/19 07:48:26;;;;;;;39.13;27.70;;;14.30;99.90;;;;;;10440729;28;20358;-79
2023/10/19 07:53:49;;;;;;;26.40;23.73;;;14.50;99.90;;;;;;10460483;28;20281;-78
2023/10/19 07:59:13;;;;;;;26.83;24.00;;;14.60;99.90;;;;;;10448208;28;20224;-78
2023/10/19 08:04:36;;;;;;;28.73;23.33;;;14.70;99.90;;;;;;10496043;28;20216;-78
2023/10/19 08:09:59;;;;;;;25.60;23.07;;;14.80;99.90;;;;;;10460238;28;20257;-78
2023/10/19 08:15:22;;;;;;;26.63;24.10;;;14.80;99.90;;;;;;10458722;28;20679;-78
2023/10/19 08:20:45;;;;;;;27.73;24.83;;;14.90;99.90;;;;;;10459694;28;20237;-79
2023/10/19 08:26:08;;;;;;;25.07;22.67;;;15.00;99.90;;;;;;10497672;28;20225;-77
2023/10/19 08:31:31;;;;;;;25.67;23.37;;;14.90;99.90;;;;;;10455702;28;20221;-79
2023/10/19 08:36:53;;;;;;;28.80;26.00;;;14.90;99.90;;;;;;10402241;28;20194;-78
2023/10/19 08:42:17;;;;;;;29.47;25.80;;;14.90;99.90;;;;;;10458001;28;20283;-79
2023/10/19 08:47:44;;;;;;;27.90;25.00;;;14.90;99.90;;;;;;10492115;28;20217;-78
2023/10/19 08:53:09;;;;;;;29.20;26.70;;;15.00;99.90;;;;;;10471799;28;20190;-78
2023/10/19 08:58:33;;;;;;;26.03;23.20;;;15.10;99.90;;;;;;10465852;28;20339;-77
2023/10/19 09:03:58;;;;;;;23.97;21.67;;;15.20;99.90;;;;;;10480722;28;20204;-79
2023/10/19 09:09:20;;;;;;;25.33;22.73;;;15.30;99.90;;;;;;10478966;28;20217;-79
2023/10/19 09:14:45;;;;;;;24.57;22.27;;;15.20;99.90;;;;;;10475149;28;20276;-79
2023/10/19 09:20:10;;;;;;;23.03;20.53;;;15.30;99.90;;;;;;10472080;28;20305;-79
2023/10/19 09:25:32;;;;;;;23.57;21.17;;;15.40;99.90;;;;;;10454758;28;20690;-79
2023/10/19 09:30:56;;;;;;;18.87;16.43;;;15.60;99.90;;;;;;10460657;28;20213;-79
2023/10/19 09:36:20;;;;;;;17.77;15.90;;;15.80;99.90;;;;;;10471273;28;20207;-79
2023/10/19 09:41:42;;;;;;;17.97;16.40;;;15.90;99.90;;;;;;10477702;28;20228;-79
2023/10/19 09:47:12;;;;;;;16.00;14.50;;;15.90;99.90;;;;;;10460406;28;20220;-79
2023/10/19 09:52:35;;;;;;;13.87;12.17;;;16.00;99.90;;;;;;10491010;28;20248;-79
2023/10/19 09:58:03;;;;;;;15.00;13.93;;;16.00;99.90;;;;;;10430619;28;20208;-79
2023/10/19 10:03:47;;;;;;;15.57;14.27;;;16.10;99.90;;;;;;10401614;28;20194;-79
2023/10/19 10:09:11;;;;;;;12.60;11.57;;;16.30;99.90;;;;;;10421544;28;20224;-79
2023/10/19 10:14:33;;;;;;;12.67;11.90;;;16.40;99.90;;;;;;10440074;28;20217;-79
2023/10/19 10:20:34;;;;;;;11.30;10.40;;;16.60;99.90;;;;;;10427855;28;20598;-79
2023/10/19 10:25:58;;;;;;;10.97;10.10;;;16.60;99.90;;;;;;10442769;28;20303;-79
2023/10/19 10:31:22;;;;;;;11.30;10.40;;;16.70;99.90;;;;;;10462081;28;20698;-78
2023/10/19 10:37:02;;;;;;;11.33;10.63;;;16.70;99.90;;;;;;10467342;28;20678;-80
2023/10/19 10:42:26;;;;;;;11.53;10.70;;;16.80;99.90;;;;;;10459134;28;20661;-78
2023/10/19 10:47:49;;;;;;;8.90;7.53;;;16.80;99.90;;;;;;10487488;28;20298;-79
2023/10/19 10:53:16;;;;;;;9.77;8.97;;;16.80;99.90;;;;;;10467175;28;20363;-80
2023/10/19 10:58:38;;;;;;;8.93;8.33;;;16.80;99.90;;;;;;10461139;28;20337;-79
2023/10/19 11:04:07;;;;;;;8.70;8.20;;;16.80;99.90;;;;;;10418231;28;20680;-80
2023/10/19 11:09:44;;;;;;;8.97;8.47;;;16.80;99.90;;;;;;10437778;28;20279;-80
2023/10/19 11:15:10;;;;;;;9.70;8.63;;;16.80;99.90;;;;;;10465355;28;20211;-80
2023/10/19 11:20:32;;;;;;;9.67;9.17;;;16.80;99.90;;;;;;10485205;28;20229;-80
2023/10/19 11:26:02;;;;;;;7.70;7.20;;;16.80;99.90;;;;;;10490215;28;20225;-80
2023/10/19 11:31:25;;;;;;;8.57;7.97;;;16.70;99.90;;;;;;10473315;28;20225;-80
2023/10/19 11:36:48;;;;;;;9.70;9.00;;;16.60;99.90;;;;;;10477504;28;20220;-79
2023/10/19 11:42:12;;;;;;;11.27;10.50;;;16.50;99.90;;;;;;10479860;28;20533;-80
2023/10/19 11:47:34;;;;;;;11.27;10.57;;;16.30;99.90;;;;;;10476232;28;20217;-80
2023/10/19 11:52:57;;;;;;;13.90;13.00;;;16.30;99.90;;;;;;10459205;28;20600;-80
2023/10/19 11:58:20;;;;;;;14.43;13.63;;;16.20;99.90;;;;;;10487415;28;20665;-80
2023/10/19 12:03:45;;;;;;;14.93;14.00;;;16.20;99.90;;;;;;10470385;28;20209;-80
2023/10/19 12:09:14;;;;;;;16.30;14.93;;;16.20;99.90;;;;;;10464672;28;20316;-80
2023/10/19 12:14:38;;;;;;;12.70;11.80;;;16.20;99.90;;;;;;10444256;28;20198;-80
2023/10/19 12:20:00;;;;;;;9.90;9.40;;;16.20;99.90;;;;;;10460121;28;20223;-79
2023/10/19 12:25:28;;;;;;;12.00;11.30;;;16.20;99.90;;;;;;10417037;28;20226;-81
2023/10/19 12:30:52;;;;;;;14.87;13.93;;;16.10;99.90;;;;;;10452506;28;20224;-80
2023/10/19 12:36:31;;;;;;;15.00;14.10;;;16.20;99.90;;;;;;10467444;28;20185;-81
2023/10/19 12:41:53;;;;;;;15.50;14.60;;;16.20;99.90;;;;;;10473155;28;20217;-80
2023/10/19 12:47:17;;;;;;;16.57;15.37;;;16.20;99.90;;;;;;10485113;28;20217;-80
2023/10/19 12:52:40;;;;;;;18.60;17.23;;;16.10;99.90;;;;;;10475612;28;20312;-81
2023/10/19 12:58:07;;;;;;;18.50;17.27;;;16.10;99.90;;;;;;10506779;28;20197;-80
2023/10/19 13:03:32;;;;;;;18.53;16.73;;;16.10;99.90;;;;;;10498999;28;20207;-79
2023/10/19 13:08:54;;;;;;;20.37;18.50;;;16.10;99.90;;;;;;10475572;28;20213;-79
2023/10/19 13:14:17;;;;;;;21.07;19.53;;;16.10;99.90;;;;;;10493823;28;20206;-78
2023/10/19 13:19:40;;;;;;;15.27;14.27;;;16.10;99.90;;;;;;10490190;28;20231;-79
2023/10/19 13:25:03;;;;;;;19.80;18.30;;;16.00;99.90;;;;;;10483731;28;20230;-79
2023/10/19 13:30:25;;;;;;;18.77;17.47;;;16.00;99.90;;;;;;10507028;28;20247;-78
2023/10/19 13:35:50;;;;;;;22.93;20.90;;;16.00;99.90;;;;;;10488454;28;20623;-80
2023/10/19 13:41:13;;;;;;;18.00;16.50;;;16.00;99.90;;;;;;10455150;28;20217;-80
2023/10/19 13:46:35;;;;;;;21.50;19.90;;;16.00;99.90;;;;;;10458164;28;20240;-80
2023/10/19 13:51:59;;;;;;;22.83;20.93;;;16.00;99.90;;;;;;10444389;28;20244;-80
2023/10/19 13:57:21;;;;;;;20.70;19.13;;;15.90;99.90;;;;;;10455427;28;20204;-80
2023/10/19 14:02:43;;;;;;;20.60;19.13;;;15.90;99.90;;;;;;10457888;28;20225;-81
2023/10/19 14:08:08;;;;;;;19.97;18.40;;;15.90;99.90;;;;;;10457694;28;20216;-80
2023/10/19 14:13:30;;;;;;;20.43;18.83;;;16.00;99.90;;;;;;10442448;28;20228;-80
2023/10/19 14:18:53;;;;;;;20.87;19.37;;;16.00;99.90;;;;;;10475956;28;20232;-80
2023/10/19 14:24:17;;;;;;;20.67;19.13;;;16.10;99.90;;;;;;10480868;28;20193;-80
2023/10/19 14:29:39;;;;;;;17.83;16.23;;;16.00;99.90;;;;;;10476848;28;20221;-80
2023/10/19 14:35:03;;;;;;;19.80;18.30;;;16.10;99.90;;;;;;10484162;28;20557;-80
2023/10/19 14:40:28;;;;;;;16.80;15.50;;;16.00;99.90;;;;;;10455477;28;20232;-80
2023/10/19 14:45:50;;;;;;;20.40;18.90;;;16.00;99.90;;;;;;10441890;28;20227;-78
2023/10/19 14:51:12;;;;;;;18.27;16.70;;;16.00;99.90;;;;;;10469670;28;20322;-79
2023/10/19 14:56:36;;;;;;;21.80;19.80;;;16.00;99.90;;;;;;10486204;28;20205;-79
2023/10/19 15:01:58;;;;;;;21.77;20.30;;;16.00;99.90;;;;;;10460493;28;20221;-81
2023/10/19 15:07:24;;;;;;;18.97;17.47;;;16.00;99.90;;;;;;10449243;28;20239;-76
2023/10/19 15:12:48;;;;;;;23.00;21.20;;;16.00;99.90;;;;;;10449228;28;20225;-81
2023/10/19 15:18:10;;;;;;;20.60;18.90;;;15.90;99.90;;;;;;10497170;28;20194;-79
2023/10/19 15:23:32;;;;;;;19.60;17.83;;;16.00;99.90;;;;;;10427153;28;20208;-79
2023/10/19 15:28:56;;;;;;;22.03;20.33;;;16.00;99.90;;;;;;10470415;28;20678;-79
2023/10/19 15:34:20;;;;;;;21.93;20.30;;;16.00;99.90;;;;;;10491330;28;20204;-80
2023/10/19 15:39:44;;;;;;;18.27;16.57;;;16.00;99.90;;;;;;10498991;28;20231;-79
2023/10/19 15:45:08;;;;;;;19.97;18.47;;;16.00;99.90;;;;;;10452465;28;20312;-80
2023/10/19 15:50:33;;;;;;;20.40;18.73;;;16.00;99.90;;;;;;10469276;28;20217;-79
2023/10/19 15:55:56;;;;;;;20.10;18.60;;;16.00;99.90;;;;;;10463713;28;20200;-78
2023/10/19 16:01:19;;;;;;;18.90;17.47;;;16.00;99.90;;;;;;10450664;28;20771;-80
2023/10/19 16:06:42;;;;;;;18.37;17.17;;;16.00;99.90;;;;;;10467169;28;20691;-80
2023/10/19 16:12:05;;;;;;;21.13;19.23;;;15.90;99.90;;;;;;10475677;28;20217;-80
2023/10/19 16:17:28;;;;;;;17.17;16.00;;;15.90;99.90;;;;;;10465384;28;20197;-80
2023/10/19 16:22:51;;;;;;;14.70;13.33;;;15.80;99.90;;;;;;10445999;28;20212;-80
2023/10/19 16:28:14;;;;;;;16.90;15.80;;;15.80;99.90;;;;;;10456199;28;20221;-80
2023/10/19 16:33:37;;;;;;;13.73;12.73;;;15.90;99.90;;;;;;10449689;28;20219;-80
2023/10/19 16:39:00;;;;;;;16.23;15.23;;;15.80;99.90;;;;;;10456968;28;20213;-80
2023/10/19 16:44:22;;;;;;;17.70;16.50;;;15.80;99.90;;;;;;10471331;28;20202;-79
2023/10/19 16:49:46;;;;;;;16.40;15.33;;;15.80;99.90;;;;;;10471970;28;20223;-80
2023/10/19 16:55:10;;;;;;;17.80;16.50;;;15.80;99.90;;;;;;10452675;28;20205;-80
2023/10/19 17:00:33;;;;;;;15.87;14.70;;;15.80;99.90;;;;;;10449678;28;20223;-80
2023/10/19 17:05:56;;;;;;;16.57;15.47;;;15.80;99.90;;;;;;10466620;28;20241;-80
2023/10/19 17:11:18;;;;;;;17.00;15.47;;;15.80;99.90;;;;;;10459490;28;20232;-80
2023/10/19 17:16:41;;;;;;;16.47;15.37;;;15.80;99.90;;;;;;10461670;28;20285;-79
2023/10/19 17:22:05;;;;;;;16.70;15.60;;;15.70;99.90;;;;;;10463971;28;20582;-79
2023/10/19 17:27:27;;;;;;;15.90;14.97;;;15.80;99.90;;;;;;10440492;28;20241;-78
2023/10/19 17:32:49;;;;;;;16.83;15.63;;;15.80;99.90;;;;;;10466764;28;20225;-79
2023/10/19 17:38:13;;;;;;;18.50;17.10;;;15.80;99.90;;;;;;10468861;28;20203;-80
2023/10/19 17:43:35;;;;;;;18.70;17.50;;;15.80;99.90;;;;;;10452317;28;20206;-80
2023/10/19 17:48:57;;;;;;;18.63;17.40;;;15.80;99.90;;;;;;10440872;28;20233;-79
2023/10/19 17:54:21;;;;;;;21.30;19.80;;;15.70;99.90;;;;;;10453857;28;20197;-79
2023/10/19 17:59:44;;;;;;;21.33;18.10;;;15.70;99.90;;;;;;10476276;28;20213;-80
2023/10/19 18:05:07;;;;;;;20.90;18.73;;;15.80;99.90;;;;;;10465921;28;20208;-81
2023/10/19 18:10:35;;;;;;;21.37;19.77;;;15.70;99.90;;;;;;10496856;28;20223;-80
2023/10/19 18:15:58;;;;;;;20.40;18.73;;;15.80;99.90;;;;;;10475523;28;20277;-81
2023/10/19 18:21:20;;;;;;;19.77;18.47;;;15.80;99.90;;;;;;10440718;28;20225;-80
2023/10/19 18:26:45;;;;;;;18.57;17.37;;;15.80;99.90;;;;;;10480529;28;20256;-81
2023/10/19 18:32:09;;;;;;;19.70;18.30;;;15.70;99.90;;;;;;10459078;28;20209;-79
2023/10/19 18:37:32;;;;;;;22.57;20.87;;;15.70;99.90;;;;;;10453422;28;20209;-81
2023/10/19 18:42:55;;;;;;;16.83;15.63;;;15.70;99.90;;;;;;10465217;28;20228;-81
2023/10/19 18:48:17;;;;;;;18.20;17.00;;;15.70;99.90;;;;;;10459776;28;20236;-80
2023/10/19 18:53:40;;;;;;;18.60;17.30;;;15.60;99.90;;;;;;10461313;28;20201;-80
2023/10/19 18:59:04;;;;;;;19.60;18.30;;;15.70;99.90;;;;;;10471879;28;20237;-81
2023/10/19 19:04:26;;;;;;;20.33;19.03;;;15.70;99.90;;;;;;10458144;28;20212;-80
2023/10/19 19:09:48;;;;;;;19.80;18.47;;;15.70;99.90;;;;;;10460447;28;20225;-81
2023/10/19 19:15:13;;;;;;;19.80;18.50;;;15.70;99.90;;;;;;10446594;28;20230;-80
2023/10/19 19:20:35;;;;;;;20.57;18.93;;;15.60;99.90;;;;;;10443174;28;20241;-80
2023/10/19 19:25:58;;;;;;;18.60;17.40;;;15.60;99.90;;;;;;10467511;28;20235;-80
2023/10/19 19:31:21;;;;;;;19.67;18.37;;;15.60;99.90;;;;;;10450766;28;20715;-80
2023/10/19 19:36:46;;;;;;;19.53;18.20;;;15.60;99.90;;;;;;10473983;28;20187;-78
2023/10/19 19:42:08;;;;;;;22.43;20.73;;;15.60;99.90;;;;;;10456524;28;20222;-80
2023/10/19 19:47:32;;;;;;;20.00;18.50;;;15.60;99.90;;;;;;10456770;28;20634;-80
2023/10/19 19:52:54;;;;;;;19.97;18.57;;;15.60;99.90;;;;;;10413232;28;20222;-79
2023/10/19 19:58:16;;;;;;;21.40;19.77;;;15.60;99.90;;;;;;10460125;28;20208;-77
2023/10/19 20:03:40;;;;;;;23.00;21.30;;;15.60;99.90;;;;;;10490595;28;20198;-79
2023/10/19 20:09:03;;;;;;;23.00;21.13;;;15.60;99.90;;;;;;10452593;28;20217;-79
2023/10/19 20:14:25;;;;;;;24.13;22.33;;;15.50;99.90;;;;;;10484753;28;20691;-78
2023/10/19 20:19:49;;;;;;;23.87;21.87;;;15.60;99.90;;;;;;10411998;28;20244;-76
2023/10/19 20:25:12;;;;;;;25.03;22.77;;;15.60;99.90;;;;;;10453774;28;20216;-77
2023/10/19 20:30:34;;;;;;;25.53;23.30;;;15.50;99.90;;;;;;10470514;28;20268;-78
2023/10/19 20:35:58;;;;;;;24.00;21.97;;;15.60;99.90;;;;;;10475744;28;20210;-78
2023/10/19 20:41:20;;;;;;;24.93;22.97;;;15.60;99.90;;;;;;10455196;28;20221;-78
2023/10/19 20:46:42;;;;;;;25.80;23.50;;;15.60;99.90;;;;;;10476199;28;20213;-80
2023/10/19 20:52:07;;;;;;;25.10;22.90;;;15.60;99.90;;;;;;10440224;28;20643;-80
2023/10/19 20:57:30;;;;;;;26.70;24.53;;;15.60;99.90;;;;;;10440174;28;20202;-79
2023/10/19 21:02:53;;;;;;;26.33;24.03;;;15.50;99.90;;;;;;10471419;28;20628;-79
2023/10/19 21:08:17;;;;;;;30.00;27.20;;;15.50;99.90;;;;;;10460591;28;20604;-78
2023/10/19 21:13:39;;;;;;;29.50;26.40;;;15.40;99.90;;;;;;10445628;28;20201;-78
2023/10/19 21:19:03;;;;;;;30.77;27.63;;;15.40;99.90;;;;;;10441337;28;20221;-79
2023/10/19 21:24:26;;;;;;;29.87;26.77;;;15.40;99.90;;;;;;10397883;28;20325;-77
2023/10/19 21:29:49;;;;;;;28.40;25.87;;;15.40;99.90;;;;;;10451693;28;20248;-78
2023/10/19 21:35:11;;;;;;;27.40;24.90;;;15.40;99.90;;;;;;10459944;28;20576;-80
2023/10/19 21:40:35;;;;;;;25.93;23.43;;;15.30;99.90;;;;;;10488919;28;20221;-80
2023/10/19 21:45:57;;;;;;;29.50;26.70;;;15.30;99.90;;;;;;10485288;28;20193;-78
2023/10/19 21:51:20;;;;;;;29.03;26.20;;;15.30;99.90;;;;;;10464718;28;20228;-78
2023/10/19 21:56:43;;;;;;;27.87;25.43;;;15.30;99.90;;;;;;10479101;28;20189;-80
2023/10/19 22:02:05;;;;;;;26.73;24.43;;;15.30;99.90;;;;;;10465616;28;20686;-81
2023/10/19 22:07:28;;;;;;;26.83;24.50;;;15.30;99.90;;;;;;10463601;28;20602;-78
2023/10/19 22:12:52;;;;;;;27.33;24.73;;;15.30;99.90;;;;;;10455725;28;20213;-77
2023/10/19 22:18:14;;;;;;;28.63;24.10;;;15.30;99.90;;;;;;10452535;28;20201;-78
2023/10/19 22:23:36;;;;;;;26.40;23.87;;;15.30;99.90;;;;;;10451571;28;20761;-80
2023/10/19 22:29:00;;;;;;;25.50;23.17;;;15.30;99.90;;;;;;10450077;28;20647;-78
2023/10/19 22:34:22;;;;;;;26.80;24.03;;;15.30;99.90;;;;;;10441293;28;20218;-79
2023/10/19 22:39:45;;;;;;;27.90;25.30;;;15.30;99.90;;;;;;10453111;28;20227;-79
2023/10/19 22:45:12;;;;;;;28.57;25.80;;;15.30;99.90;;;;;;10460481;28;20196;-79
2023/10/19 22:50:34;;;;;;;26.80;24.10;;;15.30;99.90;;;;;;10460552;28;20236;-79
2023/10/19 22:55:56;;;;;;;24.67;22.37;;;15.30;99.90;;;;;;10457685;28;20210;-78
2023/10/19 23:01:20;;;;;;;25.80;23.30;;;15.30;99.90;;;;;;10452687;28;20221;-79
2023/10/19 23:06:42;;;;;;;24.37;22.20;;;15.30;99.90;;;;;;10465187;28;20213;-78
2023/10/19 23:12:08;;;;;;;26.20;23.87;;;15.40;99.90;;;;;;10465916;28;20228;-78
2023/10/19 23:17:31;;;;;;;27.00;22.73;;;15.40;99.90;;;;;;10451758;28;20190;-79
2023/10/19 23:22:53;;;;;;;26.77;24.27;;;15.40;99.90;;;;;;10459130;28;20221;-79
2023/10/19 23:28:16;;;;;;;26.90;24.50;;;15.40;99.90;;;;;;10459273;28;20221;-79
2023/10/19 23:33:39;;;;;;;25.17;22.77;;;15.40;99.90;;;;;;10453149;28;20197;-79
2023/10/19 23:39:03;;;;;;;25.13;23.13;;;15.40;99.90;;;;;;10449560;28;20214;-78
2023/10/19 23:44:29;;;;;;;25.47;23.20;;;15.40;99.90;;;;;;10450085;28;20214;-78
2023/10/19 23:49:53;;;;;;;24.17;22.17;;;15.40;99.90;;;;;;10456345;28;20226;-78
2023/10/19 23:55:15;;;;;;;22.17;20.33;;;15.40;99.90;;;;;;10438437;28;20194;-78
